Time;durP1;ratioP1;P1;durP2;ratioP2;P2;SDS_P1;SDS_P2;PMS_P1;PMS_P2;Temp;Humidity;BMP_temperature;BMP_pressure;BME280_temperature;BME280_humidity;BME280_pressure;Samples;Min_cycle;Max_cycle;Signal;HPM_P1;HPM_P2
2020/12/11 00:00:22;;;;;;;12.18;6.53;;;;;;;-2.52;89.31;96048.44;4931146;29;20046;-79
2020/12/11 00:02:48;;;;;;;10.30;6.10;;;;;;;-2.49;88.83;96053.94;4931897;29;20511;-79
2020/12/11 00:05:13;;;;;;;10.02;6.18;;;;;;;-2.46;89.30;96048.47;4897952;29;20032;-79
2020/12/11 00:07:41;;;;;;;10.30;6.22;;;;;;;-2.47;89.17;96046.13;4935944;29;20225;-79
2020/12/11 00:10:10;;;;;;;11.13;5.80;;;;;;;-2.44;89.31;96035.53;4929012;29;20046;-79
2020/12/11 00:12:36;;;;;;;11.52;6.88;;;;;;;-2.50;88.89;96029.44;4929433;29;20036;-79
2020/12/11 00:15:07;;;;;;;12.02;6.43;;;;;;;-2.39;89.06;96027.34;4916917;29;20040;-79
2020/12/11 00:17:34;;;;;;;10.18;6.15;;;;;;;-2.43;89.61;96021.84;4926517;29;20056;-79
2020/12/11 00:20:01;;;;;;;9.23;5.70;;;;;;;-2.33;89.23;96026.56;4930381;29;20546;-79
2020/12/11 00:22:26;;;;;;;10.63;6.07;;;;;;;-2.34;88.88;96025.00;4898848;29;20046;-79
2020/12/11 00:24:52;;;;;;;9.15;5.70;;;;;;;-2.37;88.73;96022.81;4913093;29;20044;-79
2020/12/11 00:27:19;;;;;;;10.05;6.30;;;;;;;-2.50;89.11;96016.72;4927229;29;20036;-79
2020/12/11 00:29:45;;;;;;;9.25;5.90;;;;;;;-2.39;88.97;96014.59;4928339;29;20454;-79
2020/12/11 00:32:10;;;;;;;9.82;5.78;;;;;;;-2.47;89.03;96005.34;4928273;29;20054;-79
2020/12/11 00:34:36;;;;;;;9.85;5.72;;;;;;;-2.52;89.49;96020.41;4922694;29;20042;-79
2020/12/11 00:37:06;;;;;;;11.65;6.25;;;;;;;-2.51;89.68;95999.84;4914944;29;20047;-79
2020/12/11 00:39:33;;;;;;;11.40;6.85;;;;;;;-2.56;89.66;95991.97;4929739;29;20767;-79
2020/12/11 00:42:01;;;;;;;12.68;6.55;;;;;;;-2.54;89.97;95992.56;4914471;29;20111;-79
2020/12/11 00:44:27;;;;;;;10.80;6.85;;;;;;;-2.50;89.74;95996.31;4930960;29;20120;-79
2020/12/11 00:46:53;;;;;;;9.68;5.78;;;;;;;-2.48;89.61;95989.28;4898559;29;20036;-80
2020/12/11 00:49:18;;;;;;;13.45;7.40;;;;;;;-2.42;89.27;95986.94;4914204;29;20178;-79
2020/12/11 00:51:44;;;;;;;11.95;7.28;;;;;;;-2.28;88.29;95988.53;4913519;29;20043;-79
2020/12/11 00:54:10;;;;;;;11.05;6.80;;;;;;;-2.28;88.11;95993.63;4897862;29;20439;-79
2020/12/11 00:56:36;;;;;;;11.75;6.43;;;;;;;-2.29;88.40;95997.19;4913722;29;20028;-79
2020/12/11 00:59:02;;;;;;;10.73;6.53;;;;;;;-2.19;88.37;95977.19;4914362;29;20415;-79
2020/12/11 01:01:28;;;;;;;11.75;6.90;;;;;;;-2.21;87.84;95979.16;4912396;29;20043;-79
2020/12/11 01:03:54;;;;;;;11.68;6.30;;;;;;;-2.26;88.51;95974.63;4930388;29;20487;-79
2020/12/11 01:06:19;;;;;;;12.57;6.93;;;;;;;-2.22;89.16;95961.50;4913008;29;20048;-80
2020/12/11 01:08:46;;;;;;;13.45;6.40;;;;;;;-2.29;88.89;95958.94;4926297;29;20035;-79
2020/12/11 01:11:14;;;;;;;14.65;7.90;;;;;;;-2.31;88.41;95953.25;4930370;29;20036;-79
2020/12/11 01:13:39;;;;;;;12.32;6.97;;;;;;;-2.17;88.01;95959.94;4906765;29;20043;-79
2020/12/11 01:16:06;;;;;;;13.15;6.88;;;;;;;-2.18;88.07;95958.34;4913624;29;20048;-79
2020/12/11 01:18:31;;;;;;;16.10;7.70;;;;;;;-2.12;88.22;95956.81;4882392;29;20434;-79
2020/12/11 01:20:58;;;;;;;13.60;7.63;;;;;;;-2.11;87.96;95955.81;4928308;29;20466;-79
2020/12/11 01:23:25;;;;;;;12.93;7.45;;;;;;;-2.04;88.12;95951.50;4897776;29;20036;-79
2020/12/11 01:25:51;;;;;;;14.85;8.00;;;;;;;-2.11;87.93;95948.97;4912938;29;20091;-79
2020/12/11 01:28:17;;;;;;;13.60;7.65;;;;;;;-2.16;87.90;95943.66;4898420;29;20036;-79
2020/12/11 01:30:43;;;;;;;13.13;7.28;;;;;;;-2.26;88.65;95935.59;4913503;29;20050;-80
2020/12/11 01:33:09;;;;;;;12.27;7.22;;;;;;;-2.10;87.79;95942.88;4913872;29;20043;-80
2020/12/11 01:35:34;;;;;;;11.68;6.93;;;;;;;-2.21;88.00;95933.25;4909029;29;20499;-79
2020/12/11 01:38:00;;;;;;;15.13;7.70;;;;;;;-2.17;87.95;95929.34;4913634;29;20082;-79
2020/12/11 01:40:26;;;;;;;12.77;7.68;;;;;;;-2.19;88.19;95933.84;4913398;29;20023;-79
2020/12/11 01:42:52;;;;;;;14.18;7.57;;;;;;;-2.30;88.52;95916.56;4930460;29;20046;-79
2020/12/11 01:45:17;;;;;;;15.70;7.90;;;;;;;-2.23;88.65;95914.03;4893936;29;20041;-79
2020/12/11 01:47:45;;;;;;;16.40;7.93;;;;;;;-2.26;88.44;95913.44;4928411;29;20250;-79
2020/12/11 01:50:18;;;;;;;11.98;7.13;;;;;;;-2.22;88.05;95913.84;4928812;29;20123;-79
2020/12/11 01:52:48;;;;;;;13.77;7.95;;;;;;;-2.27;88.59;95916.97;4892798;29;20095;-79
2020/12/11 01:55:14;;;;;;;15.15;7.70;;;;;;;-2.07;88.55;95913.66;4909861;29;20772;-79
2020/12/11 01:57:59;;;;;;;15.00;8.52;;;;;;;-1.97;87.63;95920.91;4924994;29;20490;-79
2020/12/11 02:00:26;;;;;;;14.50;8.02;;;;;;;-1.99;88.49;95920.31;4909896;29;20079;-79
2020/12/11 02:02:59;;;;;;;14.80;7.47;;;;;;;-1.88;87.62;95914.66;4893221;29;20534;-80
2020/12/11 02:05:25;;;;;;;13.38;8.05;;;;;;;-1.97;87.74;95914.06;4964462;23;20437;-76
2020/12/11 02:07:50;;;;;;;13.43;7.75;;;;;;;-1.97;88.51;95913.25;4957673;28;20045;-76
2020/12/11 02:10:19;;;;;;;13.05;7.22;;;;;;;-2.01;88.51;95896.78;4939343;28;20023;-76
2020/12/11 02:12:44;;;;;;;13.18;8.10;;;;;;;-1.97;88.03;95895.41;4953038;28;20179;-76
2020/12/11 02:15:10;;;;;;;14.02;7.63;;;;;;;-1.97;88.14;95885.19;4955175;28;20045;-76
2020/12/11 02:17:36;;;;;;;13.90;7.57;;;;;;;-1.96;88.54;95871.47;4939256;28;20022;-76
2020/12/11 02:20:03;;;;;;;13.35;7.72;;;;;;;-1.87;88.00;95875.38;4957758;28;20437;-77
2020/12/11 02:22:29;;;;;;;13.18;7.80;;;;;;;-1.79;88.44;95874.41;4966496;28;20045;-76
2020/12/11 02:24:55;;;;;;;14.70;7.88;;;;;;;-1.68;87.10;95870.47;4951992;28;20537;-76
2020/12/11 02:27:21;;;;;;;13.75;7.95;;;;;;;-1.73;88.12;95873.59;4945913;29;20035;-76
2020/12/11 02:29:47;;;;;;;14.32;7.93;;;;;;;-1.76;88.26;95866.34;4936361;28;20392;-76
2020/12/11 02:32:16;;;;;;;15.75;8.35;;;;;;;-1.74;88.42;95862.63;4944317;29;20048;-75
2020/12/11 02:34:43;;;;;;;13.25;7.38;;;;;;;-1.61;87.64;95868.66;4955892;28;20385;-76
2020/12/11 02:37:11;;;;;;;13.77;8.48;;;;;;;-1.71;87.50;95866.56;4972679;28;20389;-76
2020/12/11 02:39:37;;;;;;;15.60;8.85;;;;;;;-1.65;87.46;95858.09;4954932;28;20382;-76
2020/12/11 02:42:03;;;;;;;12.30;7.07;;;;;;;-1.58;87.43;95863.94;4939304;28;20030;-76
2020/12/11 02:44:29;;;;;;;10.93;6.80;;;;;;;-1.58;86.46;95861.41;4954754;28;20031;-76
2020/12/11 02:46:55;;;;;;;11.88;7.30;;;;;;;-1.49;87.00;95849.22;4954048;28;20386;-75
2020/12/11 02:49:21;;;;;;;13.88;8.10;;;;;;;-1.60;87.37;95844.72;4955007;28;20118;-76
2020/12/11 02:51:50;;;;;;;12.93;7.68;;;;;;;-1.51;86.38;95833.31;4955008;28;20589;-76
2020/12/11 02:54:16;;;;;;;12.80;7.47;;;;;;;-1.54;87.05;95836.28;4954118;28;20118;-76
2020/12/11 02:56:42;;;;;;;13.23;7.32;;;;;;;-1.63;87.24;95819.59;4970866;28;20114;-76
2020/12/11 02:59:08;;;;;;;11.93;7.85;;;;;;;-1.66;86.98;95808.03;4939229;28;20030;-76
2020/12/11 03:01:34;;;;;;;14.98;8.43;;;;;;;-1.71;87.92;95793.31;4938877;28;20477;-78
2020/12/11 03:04:00;;;;;;;15.88;8.40;;;;;;;-1.78;87.65;95784.91;4963824;28;20729;-77
2020/12/11 03:06:32;;;;;;;13.32;7.78;;;;;;;-1.79;87.93;95769.81;4923110;28;20039;-78
2020/12/11 03:08:59;;;;;;;16.95;8.32;;;;;;;-1.72;87.42;95771.34;4972961;28;20046;-78
2020/12/11 03:11:25;;;;;;;16.15;7.75;;;;;;;-1.60;86.98;95773.28;4951622;28;20078;-78
2020/12/11 03:13:51;;;;;;;13.90;7.38;;;;;;;-1.50;86.83;95771.06;4970713;28;20461;-78
2020/12/11 03:16:18;;;;;;;16.83;8.10;;;;;;;-1.62;86.63;95759.94;4969030;28;20023;-78
2020/12/11 03:18:44;;;;;;;15.57;7.63;;;;;;;-1.59;87.13;95757.00;4968504;28;20027;-77
2020/12/11 03:21:10;;;;;;;12.60;7.40;;;;;;;-1.56;86.52;95754.00;4955611;28;20261;-78
2020/12/11 03:23:36;;;;;;;15.45;8.65;;;;;;;-1.53;86.22;95745.94;4967789;28;20023;-78
2020/12/11 03:26:03;;;;;;;14.45;8.63;;;;;;;-1.52;86.22;95755.19;4977852;28;20035;-77
2020/12/11 03:28:30;;;;;;;15.82;8.57;;;;;;;-1.45;86.17;95750.84;4969627;28;20474;-78
2020/12/11 03:30:56;;;;;;;14.82;8.20;;;;;;;-1.51;86.40;95751.63;4953772;28;20053;-78
2020/12/11 03:33:22;;;;;;;13.73;7.78;;;;;;;-1.63;86.84;95756.59;4937975;28;20042;-77
2020/12/11 03:35:47;;;;;;;16.23;8.40;;;;;;;-1.50;86.13;95765.97;4931548;28;20035;-78
2020/12/11 03:38:14;;;;;;;17.52;8.57;;;;;;;-1.69;86.68;95757.41;4967031;28;20027;-78
2020/12/11 03:40:39;;;;;;;14.07;8.27;;;;;;;-1.72;86.55;95752.69;4949622;28;20030;-78
2020/12/11 03:43:04;;;;;;;14.30;8.00;;;;;;;-1.71;87.13;95757.59;4954193;28;20042;-78
2020/12/11 03:45:30;;;;;;;14.02;7.88;;;;;;;-1.81;87.26;95752.16;4955778;28;20449;-78
2020/12/11 03:47:56;;;;;;;14.68;7.18;;;;;;;-1.81;87.09;95748.81;4953113;28;20741;-78
2020/12/11 03:50:22;;;;;;;14.50;7.97;;;;;;;-1.88;87.45;95748.84;4970205;28;20035;-78
2020/12/11 03:52:48;;;;;;;14.38;8.45;;;;;;;-1.90;87.68;95746.47;4970454;28;20397;-78
2020/12/11 03:55:14;;;;;;;14.05;7.90;;;;;;;-1.89;87.56;95753.13;4963036;28;20040;-78
2020/12/11 03:57:40;;;;;;;17.15;8.68;;;;;;;-1.95;88.25;95743.75;4959640;28;20565;-78
2020/12/11 04:00:06;;;;;;;17.25;10.00;;;;;;;-1.98;88.06;95745.91;4969900;28;20034;-78
2020/12/11 04:02:36;;;;;;;14.63;8.30;;;;;;;-1.94;87.47;95739.41;4955664;28;20041;-78
2020/12/11 04:05:07;;;;;;;16.13;9.13;;;;;;;-1.87;87.72;95750.38;4954519;28;20118;-78
2020/12/11 04:07:33;;;;;;;18.45;8.73;;;;;;;-1.93;87.26;95726.47;4958985;28;20425;-77
2020/12/11 04:10:00;;;;;;;18.50;8.77;;;;;;;-1.87;87.72;95719.78;4965427;28;20102;-78
2020/12/11 04:12:26;;;;;;;16.48;8.75;;;;;;;-1.87;87.15;95717.22;4950607;29;20027;-78
2020/12/11 04:14:51;;;;;;;15.63;8.40;;;;;;;-1.88;87.21;95705.47;4952373;28;20133;-77
2020/12/11 04:17:16;;;;;;;17.88;9.43;;;;;;;-1.93;87.47;95700.97;4919866;28;20035;-78
2020/12/11 04:19:43;;;;;;;18.63;9.75;;;;;;;-1.85;87.58;95705.06;4970276;28;20428;-75
2020/12/11 04:22:09;;;;;;;17.55;9.43;;;;;;;-1.80;87.41;95705.25;4964000;28;20524;-77
2020/12/11 04:24:35;;;;;;;17.45;9.20;;;;;;;-1.75;87.92;95707.16;4967336;28;20027;-78
2020/12/11 04:27:01;;;;;;;19.08;9.80;;;;;;;-1.75;87.50;95705.44;4947777;28;20109;-78
2020/12/11 04:29:27;;;;;;;21.35;10.07;;;;;;;-1.74;88.33;95701.09;4966219;28;20045;-78
2020/12/11 04:31:57;;;;;;;17.33;9.45;;;;;;;-1.72;88.83;95705.00;4953359;28;20429;-77
2020/12/11 04:34:23;;;;;;;20.63;10.32;;;;;;;-1.72;88.71;95699.13;4952492;28;20034;-78
2020/12/11 04:36:51;;;;;;;18.75;9.63;;;;;;;-1.67;87.98;95690.88;4964891;28;20088;-78
2020/12/11 04:39:17;;;;;;;19.58;9.98;;;;;;;-1.71;88.57;95687.94;4960235;28;20111;-78
2020/12/11 04:41:44;;;;;;;19.42;10.30;;;;;;;-1.66;88.35;95675.34;4950744;29;20041;-78
2020/12/11 04:44:10;;;;;;;17.42;9.48;;;;;;;-1.65;87.45;95673.56;4933774;29;20078;-78
2020/12/11 04:46:36;;;;;;;17.13;10.23;;;;;;;-1.57;88.04;95673.34;4942388;28;20070;-77
2020/12/11 04:49:03;;;;;;;17.88;9.95;;;;;;;-1.58;87.32;95666.66;4930527;29;20040;-78
2020/12/11 04:51:31;;;;;;;21.25;10.45;;;;;;;-1.62;88.06;95650.97;4947416;29;20037;-78
2020/12/11 04:54:00;;;;;;;17.75;9.02;;;;;;;-1.56;87.52;95649.38;4946496;28;20023;-77
2020/12/11 04:56:26;;;;;;;18.35;10.23;;;;;;;-1.63;88.36;95643.53;4932801;29;20027;-78
2020/12/11 04:58:54;;;;;;;16.27;8.95;;;;;;;-1.61;88.24;95629.59;4935785;28;20042;-78
2020/12/11 05:01:34;;;;;;;20.30;10.52;;;;;;;-1.49;87.30;95642.47;4973024;28;20026;-78
2020/12/11 05:04:01;;;;;;;18.27;10.63;;;;;;;-1.46;87.63;95638.72;4971754;28;20035;-77
2020/12/11 05:06:27;;;;;;;15.98;9.07;;;;;;;-1.51;87.40;95624.81;4951336;28;20046;-77
2020/12/11 05:09:12;;;;;;;17.95;9.77;;;;;;;-1.45;87.32;95633.41;4936756;28;20141;-78
2020/12/11 05:11:39;;;;;;;19.40;10.40;;;;;;;-1.35;86.97;95632.97;4969644;28;20169;-77
2020/12/11 05:14:26;;;;;;;18.60;9.75;;;;;;;-1.36;86.89;95637.28;4952639;28;20391;-78
2020/12/11 05:16:57;;;;;;;18.73;9.02;;;;;;;-1.38;87.48;95635.94;4935866;28;20065;-78
2020/12/11 05:19:24;;;;;;;16.75;9.05;;;;;;;-1.36;87.23;95619.41;4969256;28;20031;-78
2020/12/11 05:21:50;;;;;;;16.23;9.40;;;;;;;-1.33;86.88;95615.66;4931107;28;20483;-78
2020/12/11 05:24:16;;;;;;;17.30;9.88;;;;;;;-1.20;86.02;95615.56;4952947;28;20061;-77
2020/12/11 05:26:42;;;;;;;14.80;7.93;;;;;;;-1.16;85.90;95608.28;4935430;28;20054;-78
2020/12/11 05:29:08;;;;;;;16.65;8.70;;;;;;;-1.19;86.38;95606.13;4967078;28;20081;-75
2020/12/11 05:31:34;;;;;;;14.77;8.45;;;;;;;-1.11;85.77;95610.19;4937715;28;20031;-77
2020/12/11 05:34:11;;;;;;;15.90;8.60;;;;;;;-1.10;85.78;95612.53;4971414;28;20100;-77
2020/12/11 05:36:55;;;;;;;15.68;9.25;;;;;;;-1.11;84.87;95589.75;4953834;28;20366;-77
2020/12/11 05:39:24;;;;;;;15.82;8.43;;;;;;;-0.99;85.18;95603.41;4939263;28;20042;-77
2020/12/11 05:41:50;;;;;;;15.63;8.20;;;;;;;-1.05;84.92;95578.69;4971714;28;20039;-77
2020/12/11 05:44:33;;;;;;;12.93;7.45;;;;;;;-1.06;85.72;95575.38;4948420;29;20027;-77
2020/12/11 05:47:16;;;;;;;14.55;8.07;;;;;;;-0.99;85.06;95588.09;4957125;28;20026;-77
2020/12/11 05:49:41;;;;;;;14.43;8.23;;;;;;;-1.00;84.82;95579.63;4975702;28;20098;-77
2020/12/11 05:52:16;;;;;;;14.35;8.23;;;;;;;-0.95;84.28;95573.91;4972470;28;20039;-77
2020/12/11 05:54:46;;;;;;;13.77;7.90;;;;;;;-0.89;84.34;95570.50;4958137;28;20062;-77
2020/12/11 05:57:16;;;;;;;15.25;8.73;;;;;;;-0.99;84.99;95560.75;4939610;29;20031;-77
2020/12/11 05:59:43;;;;;;;13.90;7.00;;;;;;;-0.91;84.33;95564.03;4970590;28;20043;-77
2020/12/11 06:02:10;;;;;;;13.88;7.97;;;;;;;-1.01;85.40;95559.41;4956697;28;20046;-78
2020/12/11 06:04:36;;;;;;;14.27;8.20;;;;;;;-1.00;85.36;95561.75;4942559;28;20054;-77
2020/12/11 06:07:02;;;;;;;13.70;8.32;;;;;;;-0.96;84.70;95555.25;4946336;29;20047;-77
2020/12/11 06:09:37;;;;;;;15.25;8.50;;;;;;;-0.97;85.56;95546.00;4967304;28;20035;-77
2020/12/11 06:12:05;;;;;;;14.55;8.60;;;;;;;-0.83;84.33;95545.88;4958530;28;20057;-77
2020/12/11 06:14:39;;;;;;;13.75;7.80;;;;;;;-0.83;84.58;95545.88;4975476;28;20034;-77
2020/12/11 06:17:07;;;;;;;12.02;6.90;;;;;;;-0.76;84.30;95536.38;4944512;28;20841;-77
2020/12/11 06:19:40;;;;;;;14.57;8.35;;;;;;;-0.72;83.41;95544.38;4974245;28;20030;-77
2020/12/11 06:22:07;;;;;;;15.13;8.23;;;;;;;-0.77;84.26;95543.25;4957176;28;20034;-77
2020/12/11 06:24:33;;;;;;;15.18;7.97;;;;;;;-0.78;83.69;95540.91;4942707;28;20058;-77
2020/12/11 06:27:02;;;;;;;13.32;8.15;;;;;;;-0.79;84.95;95536.78;4958122;28;20144;-77
2020/12/11 06:29:40;;;;;;;12.65;7.40;;;;;;;-0.83;84.02;95526.22;4958417;28;20035;-77
2020/12/11 06:32:10;;;;;;;15.75;8.18;;;;;;;-0.73;84.66;95525.72;4942602;28;20110;-77
2020/12/11 06:34:36;;;;;;;13.82;7.82;;;;;;;-0.70;84.31;95519.38;4956224;28;20469;-78
2020/12/11 06:37:03;;;;;;;14.57;7.45;;;;;;;-0.61;83.33;95524.00;4952922;29;20039;-78
2020/12/11 06:39:43;;;;;;;11.45;7.05;;;;;;;-0.63;83.80;95522.69;4937962;28;20055;-78
2020/12/11 06:42:40;;;;;;;11.77;6.40;;;;;;;-0.67;84.43;95522.31;4957409;28;20115;-77
2020/12/11 06:45:23;;;;;;;13.07;7.15;;;;;;;-0.73;85.25;95515.50;4962445;28;20035;-77
2020/12/11 06:47:57;;;;;;;9.25;5.60;;;;;;;-0.66;85.16;95518.75;4963828;28;20061;-78
2020/12/11 06:50:26;;;;;;;9.57;5.70;;;;;;;-0.75;85.60;95504.72;4972463;28;20031;-77
2020/12/11 06:52:52;;;;;;;9.75;5.30;;;;;;;-0.69;85.03;95519.19;4972267;28;20070;-78
2020/12/11 06:55:18;;;;;;;10.13;6.15;;;;;;;-0.79;85.46;95513.78;4941989;28;20031;-78
2020/12/11 06:57:45;;;;;;;11.68;5.50;;;;;;;-0.70;85.44;95525.31;4951891;28;20043;-78
2020/12/11 07:00:25;;;;;;;11.13;6.03;;;;;;;-0.67;85.08;95522.31;4925212;28;20542;-78
2020/12/11 07:03:13;;;;;;;9.32;5.68;;;;;;;-0.69;85.15;95518.41;4951475;28;20860;-78
2020/12/11 07:05:39;;;;;;;10.52;5.78;;;;;;;-0.59;84.97;95516.91;4972842;28;20054;-78
2020/12/11 07:08:13;;;;;;;10.90;5.78;;;;;;;-0.55;84.99;95516.47;4952035;28;20049;-78
2020/12/11 07:10:38;;;;;;;9.52;5.75;;;;;;;-0.52;85.07;95516.81;4973235;28;20752;-78
2020/12/11 07:13:08;;;;;;;8.45;5.43;;;;;;;-0.58;85.35;95518.47;4971881;28;20050;-77
2020/12/11 07:15:35;;;;;;;8.98;5.50;;;;;;;-0.63;85.21;95508.13;4971431;28;20027;-77
2020/12/11 07:18:01;;;;;;;9.38;5.20;;;;;;;-0.61;86.25;95508.66;4949035;28;20089;-78
2020/12/11 07:20:27;;;;;;;9.10;5.35;;;;;;;-0.48;85.27;95506.94;4956662;28;20110;-78
2020/12/11 07:22:54;;;;;;;9.38;5.15;;;;;;;-0.58;86.30;95505.69;4976837;28;20034;-78
2020/12/11 07:25:21;;;;;;;10.48;5.68;;;;;;;-0.58;85.81;95505.69;4971646;28;20103;-76
2020/12/11 07:27:57;;;;;;;10.30;5.22;;;;;;;-0.52;85.36;95511.72;4968273;28;20106;-77
2020/12/11 07:30:25;;;;;;;8.98;5.28;;;;;;;-0.56;85.06;95497.81;4965956;28;20030;-77
2020/12/11 07:32:53;;;;;;;8.57;5.00;;;;;;;-0.45;85.67;95498.84;4938414;28;20176;-77
2020/12/11 07:35:21;;;;;;;11.02;6.07;;;;;;;-0.45;84.72;95491.97;4954642;28;20027;-76
2020/12/11 07:37:55;;;;;;;9.85;4.90;;;;;;;-0.38;84.33;95491.88;4953435;28;20121;-76
2020/12/11 07:40:21;;;;;;;12.45;6.32;;;;;;;-0.38;83.85;95482.44;4932137;28;20031;-76
2020/12/11 07:42:48;;;;;;;12.85;6.72;;;;;;;-0.39;83.92;95491.09;4959715;28;20493;-76
2020/12/11 07:45:24;;;;;;;10.18;5.35;;;;;;;-0.35;83.57;95488.91;4951353;28;20037;-76
2020/12/11 07:47:52;;;;;;;8.65;4.93;;;;;;;-0.39;83.38;95482.66;4951153;28;20034;-76
2020/12/11 07:50:20;;;;;;;11.40;4.95;;;;;;;-0.35;83.94;95488.91;4932329;28;20041;-76
2020/12/11 07:52:46;;;;;;;9.30;5.20;;;;;;;-0.32;83.31;95485.91;4953494;28;20113;-76
2020/12/11 07:55:12;;;;;;;9.98;5.38;;;;;;;-0.33;83.33;95476.66;4960911;28;20489;-76
2020/12/11 07:57:38;;;;;;;8.13;4.45;;;;;;;-0.34;83.33;95470.00;4967295;28;20062;-76
2020/12/11 08:00:06;;;;;;;8.55;4.88;;;;;;;-0.30;82.29;95472.91;4937709;28;20027;-77
2020/12/11 08:02:34;;;;;;;6.82;4.22;;;;;;;-0.30;82.84;95481.34;4934984;29;20031;-76
2020/12/11 08:05:00;;;;;;;8.80;4.70;;;;;;;-0.29;82.48;95477.81;4968600;28;20051;-76
2020/12/11 08:07:27;;;;;;;8.90;4.40;;;;;;;-0.30;83.74;95470.34;4968652;28;20101;-77
2020/12/11 08:09:53;;;;;;;8.52;4.30;;;;;;;-0.30;83.77;95476.22;4964227;28;20111;-76
2020/12/11 08:12:20;;;;;;;7.70;4.38;;;;;;;-0.32;85.22;95462.91;4953332;28;20091;-76
2020/12/11 08:14:46;;;;;;;7.88;5.05;;;;;;;-0.22;84.83;95475.16;4922337;28;20042;-76
2020/12/11 08:17:13;;;;;;;8.65;4.78;;;;;;;-0.18;84.39;95476.28;4956633;28;20035;-77
2020/12/11 08:19:39;;;;;;;8.73;4.80;;;;;;;-0.31;85.72;95469.56;4932549;28;20027;-77
2020/12/11 08:22:16;;;;;;;8.93;4.82;;;;;;;-0.21;84.97;95466.47;4954356;28;20114;-77
2020/12/11 08:24:43;;;;;;;8.00;5.00;;;;;;;-0.31;85.10;95464.47;4952664;28;20109;-77
2020/12/11 08:27:25;;;;;;;7.57;4.30;;;;;;;-0.22;86.07;95467.50;4925752;28;20031;-76
2020/12/11 08:30:08;;;;;;;10.88;4.63;;;;;;;-0.17;85.10;95459.16;4952902;28;20066;-76
2020/12/11 08:32:34;;;;;;;9.05;5.35;;;;;;;-0.23;85.47;95464.13;4937076;28;20023;-76
2020/12/11 08:34:59;;;;;;;7.75;3.88;;;;;;;-0.15;85.52;95463.06;4934890;28;20093;-77
2020/12/11 08:37:27;;;;;;;6.85;3.35;;;;;;;-0.09;84.12;95459.59;4963754;28;20030;-76
2020/12/11 08:40:04;;;;;;;8.90;5.10;;;;;;;-0.18;85.08;95455.03;4951561;28;20078;-76
2020/12/11 08:42:39;;;;;;;7.82;4.50;;;;;;;-0.10;85.23;95447.84;4945032;29;20035;-77
2020/12/11 08:52:54;;;;;;;5.22;3.80;;;;;;;0.18;83.51;95446.44;4933146;28;20030;-77
2020/12/11 08:55:21;;;;;;;5.25;3.38;;;;;;;0.24;83.97;95450.66;4924531;29;20303;-77
2020/12/11 08:57:49;;;;;;;5.50;3.40;;;;;;;0.15;83.28;95441.75;4960653;28;20038;-77
2020/12/11 09:00:16;;;;;;;6.93;3.85;;;;;;;0.13;84.76;95446.31;4963226;28;20077;-76
2020/12/11 09:02:41;;;;;;;5.82;3.53;;;;;;;0.11;85.80;95440.63;4916338;28;20102;-77
2020/12/11 09:05:07;;;;;;;6.25;3.50;;;;;;;0.12;85.28;95453.22;4965619;28;20442;-77
2020/12/11 09:07:33;;;;;;;6.95;4.43;;;;;;;-0.01;86.89;95440.63;4944282;28;20043;-77
2020/12/11 09:09:59;;;;;;;5.97;3.70;;;;;;;0.09;87.03;95451.09;4946248;29;20035;-77
2020/12/11 09:12:26;;;;;;;6.68;3.53;;;;;;;0.11;87.32;95450.88;4965068;28;20068;-77
2020/12/11 09:14:52;;;;;;;6.57;3.42;;;;;;;0.12;86.54;95455.78;4935027;28;20125;-77
2020/12/11 09:17:18;;;;;;;7.43;3.53;;;;;;;0.15;87.11;95442.50;4947447;28;20030;-77
2020/12/11 09:19:47;;;;;;;6.05;3.80;;;;;;;0.22;86.52;95446.75;4967387;28;20023;-77
2020/12/11 09:22:12;;;;;;;6.15;3.67;;;;;;;0.16;86.14;95451.75;4950308;28;20049;-76
2020/12/11 09:24:38;;;;;;;8.38;4.50;;;;;;;0.32;85.47;95445.19;4949654;28;20038;-76
2020/12/11 09:27:06;;;;;;;5.78;3.00;;;;;;;0.22;86.21;95450.09;4945784;28;20074;-77
2020/12/11 09:29:36;;;;;;;5.05;3.08;;;;;;;0.25;85.78;95441.22;4950792;28;20038;-77
2020/12/11 09:32:04;;;;;;;5.63;3.47;;;;;;;0.30;85.29;95446.44;4934537;28;20043;-77
2020/12/11 09:34:32;;;;;;;5.72;3.20;;;;;;;0.29;86.10;95447.44;4930371;28;20118;-77
2020/12/11 09:36:59;;;;;;;5.15;2.80;;;;;;;0.37;84.93;95450.44;4936066;28;20444;-77
2020/12/11 09:39:26;;;;;;;4.80;2.53;;;;;;;0.34;85.68;95437.31;4930453;29;20490;-77
2020/12/11 09:41:59;;;;;;;4.53;2.90;;;;;;;0.44;86.28;95445.22;4933996;28;20034;-76
2020/12/11 09:54:43;;;;;;;5.00;2.80;;;;;;;0.66;86.17;95430.06;4975885;28;20066;-77
2020/12/11 09:57:09;;;;;;;3.85;2.35;;;;;;;0.64;85.59;95415.94;4947002;28;20043;-77
2020/12/11 09:59:44;;;;;;;4.47;2.65;;;;;;;0.61;86.01;95409.47;4961937;28;20374;-76
2020/12/11 10:04:38;;;;;;;4.55;2.40;;;;;;;0.79;85.08;95393.19;4941883;28;20398;-76
2020/12/11 10:07:04;;;;;;;4.80;2.53;;;;;;;0.79;85.32;95388.06;4935546;28;20461;-77
2020/12/11 10:09:31;;;;;;;3.75;2.33;;;;;;;0.91;85.08;95399.06;4935817;29;20043;-77
2020/12/11 10:11:59;;;;;;;5.03;3.00;;;;;;;0.98;84.94;95390.47;4930982;29;20042;-77
2020/12/11 10:17:26;;;;;;;4.20;2.75;;;;;;;0.94;85.79;95377.31;4859852;29;20067;-77
2020/12/11 10:19:52;;;;;;;4.90;2.53;;;;;;;0.98;86.14;95372.53;4885700;29;20049;-77
2020/12/11 10:22:38;;;;;;;;;;;;;;;1.06;84.67;95367.03;4865832;29;20424;-77
2020/12/11 10:25:23;;;;;;;3.65;2.47;;;;;;;1.12;84.88;95350.75;4880280;29;19947;-77
2020/12/11 10:28:09;;;;;;;4.28;2.38;;;;;;;1.25;85.07;95353.03;4874156;29;20044;-76
2020/12/11 10:30:54;;;;;;;;;;;;;;;1.27;84.08;95361.28;4880379;29;20037;-77
2020/12/11 10:33:40;;;;;;;3.55;2.35;;;;;;;1.20;83.92;95339.34;4887511;29;19915;-77
2020/12/11 10:36:28;;;;;;;;;;;;;;;1.35;83.15;95344.72;4876951;29;20502;-77
2020/12/11 10:38:55;;;;;;;4.65;2.53;;;;;;;1.24;82.95;95341.22;4890947;29;19996;-77
2020/12/11 10:41:41;;;;;;;3.20;2.10;;;;;;;1.25;84.13;95335.09;4890829;29;20564;-77
2020/12/11 10:44:27;;;;;;;4.13;2.30;;;;;;;1.36;82.96;95333.47;4885393;29;20064;-77
2020/12/11 10:46:52;;;;;;;4.10;2.45;;;;;;;1.37;82.57;95337.63;4877826;29;20045;-77
2020/12/11 10:49:40;;;;;;;5.07;2.53;;;;;;;1.35;83.04;95334.47;4884502;29;20413;-77
2020/12/11 10:52:06;;;;;;;3.00;2.10;;;;;;;1.36;83.47;95325.78;4920632;29;20242;-77
2020/12/11 10:54:31;;;;;;;3.17;1.95;;;;;;;1.49;83.48;95325.50;4950144;28;20441;-77
2020/12/11 10:57:17;;;;;;;;;;;;;;;1.56;81.71;95317.66;4932259;29;20043;-77
2020/12/11 11:00:06;;;;;;;3.85;2.25;;;;;;;1.66;82.36;95309.31;4920327;29;19919;-77
2020/12/11 11:02:32;;;;;;;3.13;2.20;;;;;;;1.60;81.66;95297.44;4933566;29;20038;-76
2020/12/11 11:05:17;;;;;;;;;;;;;;;1.72;82.10;95294.81;4933224;29;20062;-77
2020/12/11 11:08:03;;;;;;;4.53;2.00;;;;;;;1.85;81.19;95281.63;4936116;29;20024;-76
2020/12/11 11:10:50;;;;;;;3.35;2.40;;;;;;;1.98;82.52;95278.72;4937736;28;20066;-77
2020/12/11 11:15:53;;;;;;;2.90;1.83;;;;;;;2.07;80.36;95273.97;4940187;28;20039;-76
2020/12/11 11:18:39;;;;;;;3.17;1.90;;;;;;;2.09;80.17;95263.47;4919010;29;20027;-76
2020/12/11 11:23:47;;;;;;;4.15;2.47;;;;;;;2.15;80.15;95272.78;4961403;28;20031;-76
2020/12/11 11:26:33;;;;;;;3.30;2.15;;;;;;;2.08;80.75;95270.41;4936199;29;20532;-76
2020/12/11 11:28:59;;;;;;;3.22;2.10;;;;;;;2.02;81.60;95264.44;4920867;29;20458;-77
2020/12/11 11:31:47;;;;;;;2.83;1.80;;;;;;;1.96;82.15;95247.41;4950574;29;20276;-76
2020/12/11 11:34:32;;;;;;;3.20;1.60;;;;;;;1.97;81.17;95240.47;4948931;29;20031;-76
2020/12/11 11:36:58;;;;;;;4.47;1.90;;;;;;;2.08;80.39;95244.72;4946978;29;20042;-76
2020/12/11 11:39:43;;;;;;;;;;;;;;;2.02;82.38;95243.91;4919558;29;20430;-76
2020/12/11 11:42:29;;;;;;;4.53;2.15;;;;;;;2.03;81.98;95236.97;4917706;29;19965;-76
2020/12/11 11:45:17;;;;;;;;;;;;;;;2.00;81.50;95235.63;4943549;28;20126;-76
2020/12/11 11:47:46;;;;;;;2.30;1.42;;;;;;;2.11;81.46;95238.31;4947011;28;19910;-76
2020/12/11 11:53:03;;;;;;;3.33;1.55;;;;;;;2.07;81.31;95232.91;4931165;29;20595;-76
2020/12/11 11:55:29;;;;;;;3.22;1.67;;;;;;;1.95;81.27;95216.84;4928570;29;20028;-76
2020/12/11 11:58:15;;;;;;;;;;;;;;;1.97;81.27;95223.28;4935497;29;20050;-76
2020/12/11 12:00:40;;;;;;;2.40;1.40;;;;;;;2.01;80.69;95221.03;4938999;29;20247;-76
2020/12/11 12:03:06;;;;;;;2.40;1.25;;;;;;;2.12;80.21;95214.22;4932726;29;20387;-76
2020/12/11 12:05:51;;;;;;;1.95;1.17;;;;;;;2.06;80.78;95214.16;4939208;29;20063;-76
2020/12/11 12:08:37;;;;;;;;;;;;;;;2.16;80.35;95216.09;4950808;29;20043;-76
2020/12/11 12:11:23;;;;;;;2.00;1.20;;;;;;;2.03;81.14;95208.72;4936408;29;19922;-76
2020/12/11 12:14:08;;;;;;;2.55;1.45;;;;;;;2.01;81.91;95206.41;4934515;29;20035;-76